createdAt,value
2018-05-11T00:00:26.206Z,22.90
2018-05-11T00:01:26.193Z,22.40
2018-05-11T00:02:26.227Z,17.50
2018-05-11T00:03:26.222Z,20.70
2018-05-11T00:04:26.233Z,19.00
2018-05-11T00:05:26.219Z,21.40
2018-05-11T00:06:26.241Z,20.80
2018-05-11T00:07:26.237Z,19.80
2018-05-11T00:08:26.260Z,20.70
2018-05-11T00:09:26.264Z,18.30
2018-05-11T00:10:26.375Z,17.00
2018-05-11T00:11:26.284Z,20.60
2018-05-11T00:12:26.396Z,18.50
2018-05-11T00:13:26.306Z,17.90
2018-05-11T00:14:26.405Z,21.30
2018-05-11T00:15:26.321Z,21.20
2018-05-11T00:16:26.414Z,21.40
2018-05-11T00:17:26.344Z,19.70
2018-05-11T00:18:26.433Z,22.00
2018-05-11T00:19:26.376Z,21.80
2018-05-11T00:20:26.453Z,16.40
2018-05-11T00:21:26.385Z,25.30
2018-05-11T00:22:26.458Z,23.80
2018-05-11T00:23:26.483Z,21.40
2018-05-11T00:24:27.496Z,19.20
2018-05-11T00:25:26.433Z,20.50
2018-05-11T00:26:26.488Z,18.10
2018-05-11T00:27:26.445Z,19.80
2018-05-11T00:28:26.518Z,19.00
2018-05-11T00:29:26.466Z,18.80
2018-05-11T00:30:26.514Z,22.10
2018-05-11T00:31:26.483Z,23.20
2018-05-11T00:32:26.525Z,23.40
2018-05-11T00:33:26.507Z,20.80
2018-05-11T00:34:26.538Z,20.90
2018-05-11T00:35:26.521Z,19.30
2018-05-11T00:36:26.551Z,21.70
2018-05-11T00:37:26.542Z,23.80
2018-05-11T00:38:26.566Z,22.90
2018-05-11T00:39:26.552Z,21.70
2018-05-11T00:40:26.580Z,23.30
2018-05-11T00:41:26.581Z,20.30
2018-05-11T00:42:26.697Z,18.30
2018-05-11T00:43:26.599Z,22.50
2018-05-11T00:44:26.711Z,19.50
2018-05-11T00:45:26.620Z,23.80
2018-05-11T00:46:26.730Z,22.40
2018-05-11T00:47:26.641Z,22.10
2018-05-11T00:48:26.736Z,22.90
2018-05-11T00:49:26.656Z,20.60
2018-05-11T00:50:26.757Z,22.50
2018-05-11T00:51:26.694Z,21.70
2018-05-11T00:52:26.771Z,18.50
2018-05-11T00:53:26.711Z,22.60
2018-05-11T00:54:26.782Z,25.40
2018-05-11T00:55:26.722Z,18.80
2018-05-11T00:56:26.799Z,22.40
2018-05-11T00:57:26.742Z,19.10
2018-05-11T00:58:26.802Z,22.90
2018-05-11T00:59:26.767Z,24.30
2018-05-11T01:00:26.820Z,26.30
2018-05-11T01:01:26.784Z,25.90
2018-05-11T01:02:26.829Z,23.80
2018-05-11T01:03:26.812Z,25.30
2018-05-11T01:04:26.848Z,24.40
2018-05-11T01:05:26.822Z,26.10
2018-05-11T01:06:26.860Z,22.70
2018-05-11T01:07:26.839Z,21.60
2018-05-11T01:08:26.870Z,22.90
2018-05-11T01:09:26.860Z,21.60
2018-05-11T01:10:26.893Z,21.20
2018-05-11T01:11:26.882Z,20.30
2018-05-11T01:12:26.900Z,21.30
2018-05-11T01:13:26.902Z,24.80
2018-05-11T01:14:27.020Z,20.70
2018-05-11T01:15:26.917Z,23.60
2018-05-11T01:16:27.026Z,25.60
2018-05-11T01:17:26.950Z,26.30
2018-05-11T01:18:27.080Z,26.20
2018-05-11T01:19:26.961Z,21.50
2018-05-11T01:20:27.059Z,22.80
2018-05-11T01:21:26.984Z,20.80
2018-05-11T01:22:26.997Z,22.30
2018-05-11T01:23:27.007Z,25.80
2018-05-11T01:24:27.091Z,20.20
2018-05-11T01:25:27.019Z,25.60
2018-05-11T01:26:27.101Z,27.50
2018-05-11T01:27:27.039Z,26.10
2018-05-11T01:28:27.054Z,24.30
2018-05-11T01:29:27.062Z,24.90
2018-05-11T01:30:27.089Z,19.90
2018-05-11T01:31:27.094Z,21.80
2018-05-11T01:32:27.084Z,23.20
2018-05-11T01:33:27.107Z,20.90
2018-05-11T01:34:27.119Z,23.10
2018-05-11T01:35:27.126Z,23.30
2018-05-11T01:36:27.178Z,26.10
2018-05-11T01:37:27.137Z,22.90
2018-05-11T01:38:27.155Z,25.70
2018-05-11T01:39:27.164Z,26.80
2018-05-11T01:40:27.173Z,27.80
2018-05-11T01:41:27.182Z,26.90
2018-05-11T01:42:27.189Z,25.60
2018-05-11T01:43:27.199Z,27.90
2018-05-11T01:44:27.270Z,25.20
2018-05-11T01:45:27.218Z,21.80
2018-05-11T01:46:27.222Z,24.40
2018-05-11T01:47:27.244Z,25.70
2018-05-11T01:48:27.261Z,25.50
2018-05-11T01:49:27.259Z,31.00
2018-05-11T01:50:27.266Z,28.00
2018-05-11T01:51:27.289Z,25.70
2018-05-11T01:52:27.344Z,27.60
2018-05-11T01:53:27.300Z,26.80
2018-05-11T01:54:48.340Z,30.70
2018-05-11T01:55:27.313Z,28.90
2018-05-11T01:56:48.354Z,25.30
2018-05-11T01:57:27.345Z,29.90
2018-05-11T01:58:38.333Z,26.00
2018-05-11T01:59:27.361Z,27.00
2018-05-11T02:00:40.386Z,27.40
2018-05-11T02:01:27.374Z,27.80
2018-05-11T03:32:14.116Z,29.30
2018-05-11T03:33:12.308Z,28.70
2018-05-11T03:34:12.300Z,27.20
2018-05-11T03:35:12.321Z,28.70
2018-05-11T03:36:12.314Z,26.70
2018-05-11T03:37:24.209Z,25.00
2018-05-11T03:38:12.337Z,23.80
2018-05-11T03:39:12.452Z,30.60
2018-05-11T03:40:12.350Z,27.90
2018-05-11T03:41:12.460Z,26.80
2018-05-11T03:42:12.366Z,27.30
2018-05-11T03:43:12.397Z,28.10
2018-05-11T03:44:12.385Z,26.00
2018-05-11T03:45:12.386Z,25.50
2018-05-11T03:46:12.403Z,25.00
2018-05-11T03:47:12.428Z,22.40
2018-05-11T03:48:12.436Z,24.60
2018-05-11T03:49:12.517Z,26.20
2018-05-11T03:50:12.447Z,28.60
2018-05-11T03:51:12.455Z,25.90
2018-05-11T03:52:24.207Z,30.80
2018-05-11T03:53:12.470Z,26.40
2018-05-11T03:54:24.214Z,29.70
2018-05-11T03:55:12.479Z,31.40
2018-05-11T03:56:12.567Z,25.70
2018-05-11T03:57:12.502Z,25.60
2018-05-11T03:58:12.509Z,28.40
2018-05-11T03:59:12.520Z,22.50
2018-05-11T04:00:12.615Z,25.80
2018-05-11T04:01:12.546Z,26.90
2018-05-11T04:02:12.595Z,27.40
2018-05-11T04:03:12.553Z,24.20
2018-05-11T04:04:12.563Z,24.50
2018-05-11T04:05:12.566Z,26.20
2018-05-11T04:06:12.579Z,22.70
2018-05-11T04:07:12.633Z,20.40
2018-05-11T04:08:12.592Z,24.80
2018-05-11T04:09:12.649Z,25.60
2018-05-11T04:10:12.609Z,26.00
2018-05-11T04:11:12.689Z,24.20
2018-05-11T04:12:12.631Z,20.20
2018-05-11T04:13:12.733Z,24.00
2018-05-11T04:14:12.652Z,23.60
2018-05-11T04:15:12.691Z,24.40
2018-05-11T04:16:12.673Z,27.00
2018-05-11T04:17:12.701Z,25.20
2018-05-11T04:18:12.688Z,19.90
2018-05-11T04:19:12.825Z,25.10
2018-05-11T04:20:12.707Z,24.40
2018-05-11T04:21:12.829Z,28.50
2018-05-11T04:22:12.731Z,24.60
2018-05-11T04:23:12.842Z,22.40
2018-05-11T04:24:12.746Z,22.50
2018-05-11T04:25:12.862Z,20.40
2018-05-11T04:26:12.763Z,24.20
2018-05-11T04:27:12.831Z,22.60
2018-05-11T04:28:12.777Z,24.20
2018-05-11T04:29:12.822Z,24.80
2018-05-11T04:30:12.888Z,26.10
2018-05-11T04:31:24.715Z,30.50
2018-05-11T04:32:12.822Z,28.30
2018-05-11T04:33:27.695Z,28.90
2018-05-11T04:34:12.836Z,29.40
2018-05-11T04:35:17.680Z,27.60
2018-05-11T04:36:12.854Z,28.60
2018-05-11T04:37:14.936Z,26.80
2018-05-11T04:38:12.875Z,26.80
2018-05-11T04:39:17.698Z,26.50
2018-05-11T04:40:12.893Z,32.30
2018-05-11T04:41:27.650Z,24.30
2018-05-11T04:42:12.912Z,23.80
2018-05-11T04:43:17.728Z,28.70
2018-05-11T04:44:12.924Z,26.80
2018-05-11T04:45:23.767Z,29.30
2018-05-11T04:46:12.946Z,27.70
2018-05-11T04:47:19.695Z,31.60
2018-05-11T04:48:12.955Z,28.00
2018-05-11T04:49:23.709Z,26.90
2018-05-11T04:50:12.972Z,27.60
2018-05-11T04:51:29.723Z,23.40
2018-05-11T04:52:12.990Z,25.50
2018-05-11T04:53:35.107Z,27.10
2018-05-11T04:54:13.436Z,25.30
2018-05-11T04:55:25.694Z,25.70
2018-05-11T04:56:13.034Z,27.00
2018-05-11T04:57:14.134Z,27.00
2018-05-11T04:58:13.046Z,28.80
2018-05-11T04:59:14.329Z,30.20
2018-05-11T05:00:13.068Z,23.30
2018-05-11T05:01:17.645Z,23.70
2018-05-11T05:02:13.080Z,24.00
2018-05-11T05:03:18.684Z,24.20
2018-05-11T05:04:13.141Z,24.90
2018-05-11T05:05:24.636Z,26.90
2018-05-11T05:06:13.126Z,31.80
2018-05-11T05:07:18.206Z,27.60
2018-05-11T05:08:13.146Z,26.20
2018-05-11T05:09:14.219Z,26.70
2018-05-11T05:10:13.181Z,26.60
2018-05-11T05:11:15.259Z,25.30
2018-05-11T05:12:13.191Z,27.00
2018-05-11T05:13:19.193Z,28.50
2018-05-11T05:14:13.191Z,24.10
2018-05-11T05:15:14.257Z,25.50
2018-05-11T05:16:13.207Z,26.90
2018-05-11T05:17:15.305Z,26.80
2018-05-11T05:18:13.240Z,27.40
2018-05-11T05:19:18.228Z,23.70
2018-05-11T05:20:13.251Z,28.60
2018-05-11T05:21:42.156Z,23.90
2018-05-11T05:22:13.265Z,26.30
2018-05-11T05:23:18.206Z,27.70
2018-05-11T05:24:13.277Z,27.90
2018-05-11T05:25:25.184Z,26.70
2018-05-11T05:26:13.305Z,27.80
2018-05-11T05:27:15.364Z,24.40
2018-05-11T05:28:13.313Z,25.80
2018-05-11T05:29:15.380Z,25.30
2018-05-11T05:30:13.333Z,23.50
2018-05-11T05:31:13.451Z,25.60
2018-05-11T05:32:13.353Z,23.30
2018-05-11T05:33:13.555Z,25.70
2018-05-11T05:34:13.474Z,23.20
2018-05-11T05:35:13.382Z,27.80
2018-05-11T05:36:20.345Z,31.70
2018-05-11T05:37:13.395Z,25.00
2018-05-11T05:38:13.492Z,25.20
2018-05-11T05:39:13.444Z,24.70
2018-05-11T05:40:24.266Z,24.30
2018-05-11T05:41:13.431Z,28.10
2018-05-11T05:42:19.263Z,25.30
2018-05-11T05:43:13.457Z,27.60
2018-05-11T05:44:14.565Z,22.90
2018-05-11T05:45:13.473Z,25.50
2018-05-11T05:46:34.491Z,25.30
2018-05-11T05:47:13.509Z,25.20
2018-05-11T05:48:13.568Z,29.70
2018-05-11T05:49:13.508Z,23.80
2018-05-11T05:50:19.308Z,24.10
2018-05-11T05:51:13.528Z,27.10
2018-05-11T05:52:13.663Z,23.50
2018-05-11T05:53:13.567Z,25.60
2018-05-11T05:54:13.667Z,21.80
2018-05-11T05:55:13.556Z,31.20
2018-05-11T05:56:13.686Z,26.20
2018-05-11T05:57:13.587Z,26.70
2018-05-11T05:58:13.712Z,24.00
2018-05-11T05:59:13.610Z,24.20
2018-05-11T06:00:13.613Z,25.80
2018-05-11T06:01:13.633Z,28.00
2018-05-11T06:02:13.625Z,24.30
2018-05-11T06:03:13.633Z,28.80
2018-05-11T06:04:13.647Z,25.20
2018-05-11T06:05:13.647Z,24.20
2018-05-11T06:06:13.663Z,32.00
2018-05-11T06:07:13.669Z,24.10
2018-05-11T06:08:13.752Z,30.20
2018-05-11T06:09:13.687Z,27.10
2018-05-11T06:10:13.735Z,28.10
2018-05-11T06:11:13.784Z,35.80
2018-05-11T06:12:13.719Z,25.70
2018-05-11T06:13:13.801Z,28.80
2018-05-11T06:14:13.734Z,28.70
2018-05-11T06:15:13.927Z,27.80
2018-05-11T06:16:13.755Z,30.60
2018-05-11T06:17:13.926Z,28.10
2018-05-11T06:18:13.771Z,33.70
2018-05-11T06:19:13.940Z,29.30
2018-05-11T06:20:13.796Z,32.70
2018-05-11T06:21:13.954Z,32.30
2018-05-11T06:22:13.807Z,28.70
2018-05-11T06:23:13.974Z,36.90
2018-05-11T06:24:13.887Z,30.10
2018-05-11T06:25:13.989Z,27.20
2018-05-11T06:26:13.876Z,22.90
2018-05-11T06:27:13.852Z,24.70
2018-05-11T06:28:13.860Z,28.60
2018-05-11T06:29:13.865Z,30.00
2018-05-11T06:30:13.882Z,31.00
2018-05-11T06:31:13.883Z,28.10
2018-05-11T06:32:13.894Z,28.80
2018-05-11T06:33:13.904Z,25.90
2018-05-11T06:34:13.910Z,29.00
2018-05-11T06:35:13.941Z,27.50
2018-05-11T06:36:13.933Z,26.90
2018-05-11T06:37:13.945Z,27.30
2018-05-11T06:38:13.950Z,24.30
2018-05-11T06:39:13.958Z,27.50
2018-05-11T06:40:13.969Z,28.80
2018-05-11T06:41:13.981Z,25.90
2018-05-11T06:42:13.984Z,30.20
2018-05-11T06:43:13.999Z,27.60
2018-05-11T06:44:14.006Z,26.00
2018-05-11T06:45:14.015Z,26.80
2018-05-11T06:46:14.021Z,24.40
2018-05-11T06:47:14.164Z,31.10
2018-05-11T06:48:14.092Z,27.70
2018-05-11T06:49:14.088Z,25.40
2018-05-11T06:50:14.084Z,25.40
2018-05-11T06:51:14.223Z,30.20
2018-05-11T06:52:14.083Z,29.00
2018-05-11T06:53:14.094Z,27.40
2018-05-11T06:54:14.097Z,29.60
2018-05-11T06:55:14.128Z,28.50
2018-05-11T06:56:14.112Z,26.80
2018-05-11T06:57:14.124Z,26.50
2018-05-11T06:58:14.167Z,29.50
2018-05-11T06:59:14.149Z,28.60
2018-05-11T07:00:14.181Z,31.30
2018-05-11T07:01:14.159Z,30.50
2018-05-11T07:02:14.193Z,28.70
2018-05-11T07:03:14.204Z,31.00
2018-05-11T07:04:14.308Z,37.30
2018-05-11T07:05:14.206Z,30.30
2018-05-11T07:06:14.394Z,28.60
2018-05-11T07:07:14.224Z,30.90
2018-05-11T07:08:14.336Z,32.80
2018-05-11T07:09:14.250Z,32.70
2018-05-11T07:10:14.351Z,33.30
2018-05-11T07:11:14.264Z,30.20
2018-05-11T07:12:14.272Z,34.80
2018-05-11T07:13:14.278Z,28.60
2018-05-11T07:14:14.286Z,30.40
2018-05-11T07:15:14.327Z,27.80
2018-05-11T07:16:14.325Z,27.90
2018-05-11T07:17:14.321Z,27.60
2018-05-11T07:18:14.321Z,25.30
2018-05-11T07:19:14.335Z,24.20
2018-05-11T07:20:14.332Z,26.40
2018-05-11T07:21:14.349Z,26.10
2018-05-11T07:22:14.383Z,27.40
2018-05-11T07:23:14.379Z,27.70
2018-05-11T07:24:14.375Z,22.70
2018-05-11T07:25:14.403Z,22.70
2018-05-11T07:26:14.394Z,25.30
2018-05-11T07:27:14.408Z,24.70
2018-05-11T07:28:14.413Z,27.40
2018-05-11T07:29:14.428Z,24.90
2018-05-11T07:30:14.433Z,24.90
2018-05-11T07:31:14.441Z,25.60
2018-05-11T07:32:14.445Z,27.00
2018-05-11T07:33:14.461Z,25.30
2018-05-11T07:34:14.485Z,24.50
2018-05-11T07:35:14.479Z,27.80
2018-05-11T07:36:14.615Z,30.10
2018-05-11T07:37:14.496Z,26.20
2018-05-11T07:38:14.621Z,25.40
2018-05-11T07:39:14.518Z,25.40
2018-05-11T07:40:14.618Z,24.70
2018-05-11T07:41:14.545Z,25.30
2018-05-11T07:42:14.632Z,25.30
2018-05-11T07:43:14.651Z,23.70
2018-05-11T07:44:14.642Z,26.80
2018-05-11T07:45:14.570Z,22.50
2018-05-11T07:46:14.681Z,26.90
2018-05-11T07:47:14.592Z,27.10
2018-05-11T07:48:14.676Z,21.90
2018-05-11T07:49:14.616Z,24.30
2018-05-11T07:50:14.689Z,23.90
2018-05-11T07:51:14.633Z,28.40
2018-05-11T07:52:14.701Z,21.80
2018-05-11T07:53:14.653Z,23.30
2018-05-11T07:54:14.753Z,24.50
2018-05-11T07:55:14.676Z,23.20
2018-05-11T07:56:14.753Z,24.20
2018-05-11T07:57:14.685Z,28.60
2018-05-11T07:58:14.742Z,25.80
2018-05-11T07:59:14.712Z,24.50
2018-05-11T08:00:14.753Z,25.60
2018-05-11T08:01:14.722Z,24.00
2018-05-11T08:02:14.779Z,27.10
2018-05-11T08:03:14.751Z,22.50
2018-05-11T08:04:14.785Z,23.70
2018-05-11T08:05:14.766Z,25.80
2018-05-11T08:06:14.814Z,23.80
2018-05-11T08:07:14.784Z,25.80
2018-05-11T08:08:15.836Z,24.30
2018-05-11T08:09:14.806Z,21.80
2018-05-11T08:10:14.833Z,22.60
2018-05-11T08:11:14.851Z,24.00
2018-05-11T08:12:14.941Z,21.10
2018-05-11T08:13:14.848Z,30.90
2018-05-11T08:14:16.041Z,25.80
2018-05-11T08:15:14.976Z,24.30
2018-05-11T08:16:15.899Z,21.50
2018-05-11T08:17:14.908Z,26.80
2018-05-11T08:18:14.988Z,24.00
2018-05-11T08:19:14.897Z,23.00
2018-05-11T08:20:15.002Z,28.60
2018-05-11T08:21:14.993Z,21.60
2018-05-11T08:22:15.008Z,24.10
2018-05-11T08:23:14.938Z,22.60
2018-05-11T08:24:15.155Z,21.80
2018-05-11T08:25:14.997Z,21.30
2018-05-11T08:26:15.038Z,20.30
2018-05-11T08:27:14.970Z,26.40
2018-05-11T08:28:15.053Z,23.80
2018-05-11T08:29:14.991Z,24.10
2018-05-11T08:30:15.066Z,23.70
2018-05-11T08:31:15.010Z,20.20
2018-05-11T08:32:15.081Z,19.20
2018-05-11T08:33:15.045Z,20.40
2018-05-11T08:34:15.109Z,17.80
2018-05-11T08:35:15.049Z,20.30
2018-05-11T08:36:15.107Z,18.80
2018-05-11T08:37:15.066Z,19.10
2018-05-11T08:38:15.125Z,19.70
2018-05-11T08:39:15.091Z,17.80
2018-05-11T08:40:15.134Z,21.00
2018-05-11T08:41:15.107Z,21.00
2018-05-11T08:42:15.150Z,21.20
2018-05-11T08:43:15.138Z,20.70
2018-05-11T08:44:15.181Z,19.30
2018-05-11T08:45:15.147Z,20.10
2018-05-11T08:46:15.180Z,21.80
2018-05-11T08:47:15.162Z,21.40
2018-05-11T08:48:15.189Z,19.30
2018-05-11T08:49:15.193Z,19.20
2018-05-11T08:50:15.309Z,18.50
2018-05-11T08:51:15.210Z,19.90
2018-05-11T08:52:15.331Z,22.30
2018-05-11T08:53:15.245Z,19.10
2018-05-11T08:54:15.373Z,19.60
2018-05-11T08:55:15.249Z,19.70
2018-05-11T08:56:15.351Z,23.60
2018-05-11T08:57:15.396Z,22.30
2018-05-11T08:58:15.360Z,23.20
2018-05-11T08:59:15.290Z,28.60
2018-05-11T09:00:15.373Z,23.30
2018-05-11T09:01:15.306Z,18.20
2018-05-11T09:02:15.392Z,19.30
2018-05-11T09:03:15.322Z,20.30
2018-05-11T09:04:15.432Z,17.30
2018-05-11T09:05:15.393Z,21.30
2018-05-11T09:06:15.418Z,20.50
2018-05-11T09:07:15.360Z,19.60
2018-05-11T09:08:15.445Z,19.10
2018-05-11T09:09:15.393Z,17.50
2018-05-11T09:10:15.444Z,20.60
2018-05-11T09:11:15.411Z,21.10
2018-05-11T09:12:15.453Z,18.90
2018-05-11T09:13:15.431Z,17.40
2018-05-11T09:14:15.487Z,18.60
2018-05-11T09:15:15.441Z,15.50
2018-05-11T09:16:15.508Z,20.20
2018-05-11T09:17:15.467Z,18.70
2018-05-11T09:18:15.515Z,17.80
2018-05-11T09:19:15.478Z,17.20
2018-05-11T09:20:15.528Z,18.90
2018-05-11T09:21:15.502Z,19.50
2018-05-11T09:22:15.543Z,18.10
2018-05-11T09:23:15.526Z,16.20
2018-05-11T09:24:15.668Z,18.40
2018-05-11T09:25:15.553Z,25.20
2018-05-11T09:26:15.652Z,21.70
2018-05-11T09:27:15.573Z,19.60
2018-05-11T09:28:15.684Z,20.40
2018-05-11T09:29:15.595Z,17.00
2018-05-11T09:30:16.605Z,20.80
2018-05-11T09:31:15.617Z,21.00
2018-05-11T09:33:01.554Z,18.50
2018-05-11T09:34:02.604Z,19.10
2018-05-11T09:35:01.563Z,19.80
2018-05-11T09:36:01.610Z,19.10
2018-05-11T09:37:01.567Z,19.60
2018-05-11T09:38:01.608Z,19.20
2018-05-11T09:39:01.587Z,17.60
2018-05-11T09:40:01.626Z,19.90
2018-05-11T09:41:47.556Z,22.00
2018-05-11T09:42:47.480Z,19.70
2018-05-11T09:43:47.472Z,18.80
2018-05-11T09:44:47.541Z,18.70
2018-05-11T09:45:47.566Z,16.60
2018-05-11T09:46:47.555Z,17.40
2018-05-11T09:47:47.526Z,15.80
2018-05-11T09:48:47.547Z,15.80
2018-05-11T09:49:47.536Z,19.00
2018-05-11T09:50:47.572Z,14.30
2018-05-11T09:51:47.570Z,15.20
2018-05-11T09:52:47.585Z,17.20
2018-05-11T09:53:47.586Z,16.30
2018-05-11T09:54:47.713Z,15.30
2018-05-11T09:56:33.819Z,16.10
2018-05-11T09:57:33.761Z,13.50
2018-05-11T09:58:33.769Z,13.80
2018-05-11T09:59:33.811Z,14.90
2018-05-11T10:00:33.767Z,12.60
2018-05-11T10:01:33.812Z,13.80
2018-05-11T10:02:33.789Z,15.60
2018-05-11T10:03:33.829Z,13.90
2018-05-11T10:04:33.811Z,13.60
2018-05-11T10:05:33.848Z,13.90
2018-05-11T10:06:33.832Z,14.80
2018-05-11T10:07:33.960Z,13.80
2018-05-11T10:08:33.852Z,15.10
2018-05-11T10:09:33.972Z,15.50
2018-05-11T10:10:33.872Z,10.50
2018-05-11T10:11:34.025Z,14.70
2018-05-11T10:12:33.908Z,13.80
2018-05-11T10:13:33.998Z,11.80
2018-05-11T10:14:33.924Z,12.70
2018-05-11T10:15:34.017Z,13.50
2018-05-11T10:16:33.934Z,12.70
2018-05-11T10:17:34.027Z,17.00
2018-05-11T10:18:33.959Z,17.80
2018-05-11T10:19:34.057Z,14.30
2018-05-11T10:20:33.976Z,16.60
2018-05-11T10:21:34.055Z,16.50
2018-05-11T10:22:34.010Z,15.00
2018-05-11T10:23:34.089Z,17.10
2018-05-11T10:24:34.024Z,10.90
2018-05-11T10:25:34.190Z,13.40
2018-05-11T10:26:34.057Z,12.90
2018-05-11T10:27:34.053Z,14.90
2018-05-11T10:28:34.061Z,16.00
2018-05-11T10:29:34.090Z,12.50
2018-05-11T10:30:34.104Z,15.10
2018-05-11T10:31:34.120Z,11.90
2018-05-11T10:32:34.153Z,18.50
2018-05-11T10:34:20.443Z,13.10
2018-05-11T10:35:20.378Z,13.60
2018-05-11T10:36:20.393Z,14.00
2018-05-11T10:37:20.415Z,14.80
2018-05-11T10:38:20.487Z,14.80
2018-05-11T10:39:20.423Z,13.50
2018-05-11T10:40:20.443Z,14.10
2018-05-11T10:41:20.499Z,13.40
2018-05-11T10:42:20.462Z,13.00
2018-05-11T10:43:20.484Z,12.40
2018-05-11T10:44:20.479Z,17.10
2018-05-11T10:46:06.767Z,18.30
2018-05-11T10:47:06.779Z,16.70
2018-05-11T10:48:06.754Z,14.80
2018-05-11T10:49:06.772Z,15.60
2018-05-11T10:50:06.778Z,16.20
2018-05-11T10:51:06.825Z,16.10
2018-05-11T10:52:06.832Z,14.40
2018-05-11T10:53:06.834Z,16.10
2018-05-11T10:54:06.821Z,16.70
2018-05-11T10:55:06.858Z,15.30
2018-05-11T10:56:06.853Z,16.10
2018-05-11T10:57:06.852Z,17.20
2018-05-11T10:58:06.875Z,17.60
2018-05-11T10:59:06.878Z,17.80
2018-05-11T11:00:06.990Z,19.10
2018-05-11T11:01:06.892Z,17.80
2018-05-11T11:02:06.921Z,17.80
2018-05-11T11:03:06.920Z,16.30
2018-05-11T11:04:06.956Z,15.80
2018-05-11T11:05:06.970Z,21.70
2018-05-11T11:06:06.976Z,16.50
2018-05-11T11:07:53.393Z,19.10
2018-05-11T11:08:53.384Z,17.20
2018-05-11T11:09:53.443Z,19.30
2018-05-11T11:10:53.435Z,18.00
2018-05-11T11:11:53.428Z,16.90
2018-05-11T11:12:53.459Z,15.70
2018-05-11T11:13:53.462Z,21.50
2018-05-11T11:14:53.446Z,18.90
2018-05-11T11:15:53.478Z,20.50
2018-05-11T11:16:53.513Z,18.20
2018-05-11T11:18:39.671Z,17.40
2018-05-11T11:19:39.676Z,17.10
2018-05-11T11:20:39.641Z,18.00
2018-05-11T11:21:39.672Z,17.50
2018-05-11T11:22:39.678Z,18.80
2018-05-11T11:23:39.733Z,17.00
2018-05-11T11:24:39.705Z,20.20
2018-05-11T11:25:39.697Z,23.80
2018-05-11T11:26:39.716Z,17.60
2018-05-11T11:27:39.735Z,16.70
2018-05-11T11:29:26.075Z,19.50
2018-05-11T11:30:25.999Z,20.00
2018-05-11T11:31:25.999Z,18.40
2018-05-11T11:32:26.016Z,19.30
2018-05-11T11:33:26.065Z,20.30
2018-05-11T11:34:26.115Z,21.10
2018-05-11T11:35:26.071Z,18.30
2018-05-11T11:36:26.056Z,22.90
2018-05-11T11:37:26.178Z,18.90
2018-05-11T11:38:26.616Z,21.00
2018-05-11T11:39:26.202Z,18.50
2018-05-11T11:40:26.100Z,15.90
2018-05-11T11:41:26.209Z,18.60
2018-05-11T11:42:26.132Z,19.80
2018-05-11T11:43:26.231Z,16.90
2018-05-11T11:44:26.171Z,15.80
2018-05-11T11:46:12.391Z,16.40
2018-05-11T11:47:12.423Z,15.70
2018-05-11T11:48:12.393Z,16.70
2018-05-11T11:49:12.435Z,19.60
2018-05-11T11:50:12.442Z,18.80
2018-05-11T11:51:12.719Z,16.20
2018-05-11T11:52:12.442Z,17.40
2018-05-11T11:53:12.664Z,16.20
2018-05-11T11:54:12.466Z,17.60
2018-05-11T11:55:12.704Z,17.80
2018-05-11T11:56:12.544Z,19.50
2018-05-11T11:57:12.727Z,20.80
2018-05-11T11:58:12.513Z,18.90
2018-05-11T11:59:12.606Z,15.10
2018-05-11T12:00:12.538Z,20.20
2018-05-11T12:01:12.550Z,16.60
2018-05-11T12:02:12.562Z,15.40
2018-05-11T12:03:12.572Z,17.00
2018-05-11T12:04:12.597Z,18.70
2018-05-11T12:05:59.015Z,13.90
2018-05-11T12:06:59.034Z,15.20
2018-05-11T12:07:59.007Z,14.70
2018-05-11T12:08:59.147Z,15.90
2018-05-11T12:09:59.025Z,18.60
2018-05-11T12:10:59.073Z,19.20
2018-05-11T12:11:59.050Z,15.60
2018-05-11T12:12:59.110Z,16.80
2018-05-11T12:13:59.089Z,14.80
2018-05-11T12:14:59.375Z,17.10
2018-05-11T12:15:59.100Z,21.70
2018-05-11T12:16:59.204Z,21.90
2018-05-11T12:17:59.132Z,16.20
2018-05-11T12:18:59.226Z,15.70
2018-05-11T12:19:59.171Z,16.10
2018-05-11T12:20:59.241Z,18.10
2018-05-11T12:21:45.480Z,21.10
2018-05-11T12:22:45.432Z,21.00
2018-05-11T12:23:45.395Z,15.50
2018-05-11T12:24:45.458Z,15.80
2018-05-11T12:25:45.424Z,16.80
2018-05-11T12:26:45.466Z,18.40
2018-05-11T12:27:45.469Z,18.70
2018-05-11T12:28:46.594Z,19.60
2018-05-11T12:29:45.463Z,19.00
2018-05-11T12:30:50.331Z,15.50
2018-05-11T12:31:45.520Z,14.50
2018-05-11T12:32:56.255Z,20.60
2018-05-11T12:45:06.931Z,19.10
2018-05-11T12:46:06.948Z,17.50
2018-05-11T12:47:29.016Z,17.30
2018-05-11T12:48:06.929Z,19.40
2018-05-11T12:49:09.009Z,18.30
2018-05-11T12:50:07.080Z,16.10
2018-05-11T12:51:27.962Z,17.00
2018-05-11T12:52:06.972Z,16.70
2018-05-11T12:53:12.063Z,18.80
2018-05-11T12:54:07.006Z,18.60
2018-05-11T12:58:35.860Z,18.00
2018-05-11T12:59:34.076Z,14.40
2018-05-11T13:00:34.105Z,20.00
2018-05-11T13:01:46.925Z,20.10
2018-05-11T13:02:34.083Z,14.40
2018-05-11T13:03:38.934Z,16.70
2018-05-11T13:04:34.117Z,16.20
2018-05-11T13:05:34.205Z,15.50
2018-05-11T13:06:34.153Z,14.90
2018-05-11T13:07:39.023Z,15.60
2018-05-11T13:08:34.158Z,18.30
2018-05-11T13:33:59.350Z,19.70
2018-05-11T13:34:59.267Z,17.40
2018-05-11T13:35:59.285Z,15.80
2018-05-11T13:36:59.298Z,17.20
2018-05-11T13:37:59.362Z,16.30
2018-05-11T13:38:59.320Z,16.10
2018-05-11T13:39:59.490Z,15.20
2018-05-11T13:40:59.339Z,15.50
2018-05-11T13:41:59.358Z,16.20
2018-05-11T13:42:59.474Z,16.80
2018-05-11T13:43:59.410Z,17.40
2018-05-11T13:44:59.407Z,14.80
2018-05-11T13:45:59.477Z,14.40
2018-05-11T13:46:59.542Z,10.60
2018-05-11T13:47:59.450Z,10.70
2018-05-11T13:48:59.515Z,13.70
2018-05-11T13:49:59.467Z,11.50
2018-05-11T13:51:45.890Z,13.60
2018-05-11T13:52:45.921Z,14.20
2018-05-11T13:53:45.897Z,13.90
2018-05-11T13:54:45.948Z,13.50
2018-05-11T13:55:45.950Z,11.80
2018-05-11T13:56:45.941Z,15.50
2018-05-11T13:57:45.965Z,13.40
2018-05-11T13:58:46.066Z,15.40
2018-05-11T13:59:45.969Z,13.90
2018-05-11T14:00:46.088Z,17.20
2018-05-11T14:01:46.011Z,16.10
2018-05-11T14:02:46.090Z,13.50
2018-05-11T14:03:46.014Z,14.50
2018-05-11T14:04:46.100Z,13.20
2018-05-11T14:05:46.046Z,16.10
2018-05-11T14:06:46.128Z,14.80
2018-05-11T14:07:46.164Z,16.70
2018-05-11T14:08:46.136Z,16.40
2018-05-11T14:09:46.100Z,17.60
2018-05-11T14:10:46.144Z,17.20
2018-05-11T14:11:46.122Z,17.90
2018-05-11T14:12:46.163Z,17.80
2018-05-11T14:13:46.159Z,19.50
2018-05-11T14:14:46.269Z,16.90
2018-05-11T14:15:46.192Z,15.50
2018-05-11T14:16:46.303Z,16.30
2018-05-11T14:17:46.242Z,15.10
2018-05-11T14:18:46.301Z,12.90
2018-05-11T14:19:46.221Z,12.80
2018-05-11T14:20:46.330Z,12.90
2018-05-11T14:21:46.245Z,12.20
2018-05-11T14:22:46.313Z,11.10
2018-05-11T14:23:46.287Z,12.10
2018-05-11T14:24:46.346Z,13.80
2018-05-11T14:25:46.376Z,13.40
2018-05-11T14:26:46.422Z,11.50
2018-05-11T14:27:46.351Z,11.30
2018-05-11T14:28:46.428Z,12.20
2018-05-11T14:29:46.352Z,11.10
2018-05-11T14:30:46.439Z,11.30
2018-05-11T14:31:46.384Z,9.50
2018-05-11T14:32:46.456Z,8.90
2018-05-11T14:33:46.405Z,9.40
2018-05-11T14:34:46.419Z,11.60
2018-05-11T14:35:46.435Z,10.50
2018-05-11T14:36:46.455Z,10.30
2018-05-11T14:38:32.864Z,11.80
2018-05-11T14:39:32.873Z,13.00
2018-05-11T14:40:32.847Z,11.60
2018-05-11T14:41:32.853Z,10.30
2018-05-11T14:42:32.906Z,11.80
2018-05-11T14:43:32.950Z,12.80
2018-05-11T14:44:32.924Z,10.80
2018-05-11T14:45:32.980Z,10.60
2018-05-11T14:46:32.957Z,10.70
2018-05-11T14:47:32.975Z,9.50
2018-05-11T14:49:19.377Z,11.80
2018-05-11T14:50:19.402Z,13.60
2018-05-11T14:51:20.361Z,13.40
2018-05-11T14:52:19.381Z,11.10
2018-05-11T14:53:19.327Z,11.10
2018-05-11T14:54:19.345Z,10.20
2018-05-11T14:55:19.477Z,12.50
2018-05-11T14:56:19.376Z,12.10
2018-05-11T14:57:19.496Z,11.90
2018-05-11T14:58:19.431Z,12.10
2018-05-11T14:59:19.401Z,9.50
2018-05-11T15:00:19.428Z,9.50
2018-05-11T15:01:19.457Z,10.30
2018-05-11T15:03:05.898Z,10.70
2018-05-11T15:04:05.983Z,9.70
2018-05-11T15:06:00.179Z,8.80
2018-05-11T15:07:00.163Z,8.50
2018-05-11T15:08:00.171Z,7.60
2018-05-11T15:09:00.200Z,8.30
2018-05-11T15:10:00.243Z,9.10
2018-05-11T15:11:00.227Z,9.00
2018-05-11T15:12:00.227Z,9.30
2018-05-11T15:13:00.363Z,9.30
2018-05-11T15:14:00.256Z,13.20